Time;durP1;ratioP1;P1;durP2;ratioP2;P2;SDS_P1;SDS_P2;PMS_P1;PMS_P2;Temp;Humidity;BMP_temperature;BMP_pressure;BME280_temperature;BME280_humidity;BME280_pressure;Samples;Min_cycle;Max_cycle;Signal;HPM_P1;HPM_P2
2023/05/21 00:01:36;;;;;;;6.57;4.68;;;;;;;14.59;100.00;63508.00;5028441;28;20285;-80
2023/05/21 00:04:05;;;;;;;6.22;4.80;;;;;;;14.60;100.00;63506.50;5029955;28;20198;-79
2023/05/21 00:06:34;;;;;;;4.55;4.15;;;;;;;14.54;100.00;63497.69;5041918;28;20278;-79
2023/05/21 00:09:02;;;;;;;6.72;4.50;;;;;;;14.51;100.00;63492.03;5045828;28;20395;-80
2023/05/21 00:11:32;;;;;;;4.93;4.38;;;;;;;14.54;100.00;63500.25;5038609;28;20260;-79
2023/05/21 00:13:59;;;;;;;4.65;4.25;;;;;;;14.51;100.00;63502.78;5047785;28;20194;-81
2023/05/21 00:16:26;;;;;;;4.60;4.20;;;;;;;14.41;100.00;63489.81;5030799;28;20218;-80
2023/05/21 00:18:54;;;;;;;4.97;3.80;;;;;;;14.28;100.00;63473.25;5028911;28;20248;-81
2023/05/21 00:21:21;;;;;;;7.13;4.82;;;;;;;14.30;100.00;63478.41;5037988;28;20221;-79
2023/05/21 00:23:48;;;;;;;8.02;4.40;;;;;;;14.27;100.00;63469.66;5048077;28;20198;-80
2023/05/21 00:26:16;;;;;;;4.25;3.95;;;;;;;14.19;100.00;63464.41;5046518;28;20872;-80
2023/05/21 00:28:44;;;;;;;5.13;4.57;;;;;;;14.15;100.00;63462.31;5028322;28;20252;-80
2023/05/21 00:31:11;;;;;;;4.53;4.13;;;;;;;14.12;100.00;63457.13;5028618;28;20428;-80
2023/05/21 00:33:38;;;;;;;6.60;4.18;;;;;;;14.18;100.00;63467.97;5029543;28;20249;-78
2023/05/21 00:36:06;;;;;;;5.65;4.40;;;;;;;14.22;99.95;63464.97;5029309;28;20226;-80
2023/05/21 00:38:33;;;;;;;5.82;4.20;;;;;;;14.13;100.00;63458.19;5048842;28;20249;-80
2023/05/21 00:41:01;;;;;;;4.82;4.38;;;;;;;14.13;100.00;63458.19;5031231;28;20202;-80
2023/05/21 00:43:31;;;;;;;4.75;4.35;;;;;;;14.10;100.00;63454.56;5039300;28;20213;-79
2023/05/21 00:45:59;;;;;;;5.10;4.63;;;;;;;14.03;100.00;63449.84;5047566;28;20202;-80
2023/05/21 00:48:27;;;;;;;4.50;4.10;;;;;;;14.08;100.00;63449.91;5045033;28;20225;-79
2023/05/21 00:50:55;;;;;;;7.97;4.88;;;;;;;14.06;100.00;63450.91;5027648;28;20214;-79
2023/05/21 00:53:23;;;;;;;7.85;4.30;;;;;;;14.04;100.00;63453.44;5032391;28;20222;-79
2023/05/21 00:55:50;;;;;;;7.53;4.75;;;;;;;14.00;100.00;63447.25;5027174;28;20465;-81
2023/05/21 00:58:17;;;;;;;4.95;4.40;;;;;;;13.93;100.00;63442.53;5027113;28;20241;-80
2023/05/21 01:00:45;;;;;;;6.22;4.32;;;;;;;13.98;100.00;63444.66;5046603;28;20198;-82
2023/05/21 01:03:15;;;;;;;5.82;4.82;;;;;;;14.03;100.00;63455.47;5041586;28;20222;-79
2023/05/21 01:05:43;;;;;;;4.50;4.20;;;;;;;14.01;100.00;63448.28;5027114;28;20226;-79
2023/05/21 01:08:12;;;;;;;5.50;4.13;;;;;;;14.04;100.00;63448.31;5029661;28;20218;-78
2023/05/21 01:10:39;;;;;;;8.00;5.18;;;;;;;14.06;100.00;63453.47;5028121;28;20211;-80
2023/05/21 01:13:07;;;;;;;6.78;4.43;;;;;;;14.05;100.00;63455.00;5029031;28;20218;-79
2023/05/21 01:15:36;;;;;;;6.40;5.10;;;;;;;14.02;100.00;63446.75;5030766;28;20203;-79
2023/05/21 01:18:04;;;;;;;4.95;4.50;;;;;;;14.15;100.00;63460.25;5044455;28;20297;-79
2023/05/21 01:20:38;;;;;;;9.23;4.85;;;;;;;14.24;100.00;63469.06;5045971;28;20293;-79
2023/05/21 01:23:07;;;;;;;5.60;4.95;;;;;;;14.23;100.00;63468.56;5048132;28;20221;-80
2023/05/21 01:25:35;;;;;;;4.95;4.50;;;;;;;14.28;100.00;63476.34;5035914;28;20517;-79
2023/05/21 01:28:02;;;;;;;5.60;4.30;;;;;;;14.25;100.00;63470.66;5028293;28;20226;-80
2023/05/21 01:30:30;;;;;;;6.75;4.15;;;;;;;14.25;100.00;63470.13;5027828;28;20255;-79
2023/05/21 01:33:02;;;;;;;6.00;4.45;;;;;;;14.35;100.00;63486.16;5027442;28;20286;-79
2023/05/21 01:35:33;;;;;;;5.97;5.22;;;;;;;14.32;100.00;63472.28;5027907;28;20209;-79
2023/05/21 01:38:10;;;;;;;6.40;5.65;;;;;;;14.30;100.00;63475.84;5028322;28;20261;-81
2023/05/21 01:40:45;;;;;;;11.93;6.93;;;;;;;14.32;100.00;63472.81;5033477;28;20225;-79
2023/05/21 01:43:14;;;;;;;10.38;6.47;;;;;;;14.25;100.00;63475.25;5045959;28;20213;-80
2023/05/21 01:45:44;;;;;;;5.28;4.88;;;;;;;14.20;100.00;63468.03;5036195;28;20454;-80
2023/05/21 01:48:12;;;;;;;6.82;6.00;;;;;;;14.05;100.00;63449.38;5027248;28;20274;-80
2023/05/21 01:50:41;;;;;;;9.57;6.32;;;;;;;13.97;100.00;63438.47;5042461;28;20202;-81
2023/05/21 01:53:10;;;;;;;11.32;8.55;;;;;;;14.04;100.00;63448.31;5028187;28;20269;-80
2023/05/21 01:55:40;;;;;;;13.85;10.82;;;;;;;14.05;100.00;63451.94;5030637;28;20199;-80
2023/05/21 01:58:08;;;;;;;10.52;8.75;;;;;;;14.04;100.00;63446.28;5028447;28;20345;-80
2023/05/21 02:00:36;;;;;;;12.32;9.60;;;;;;;14.04;100.00;63450.88;5040471;28;20554;-80
2023/05/21 02:03:03;;;;;;;9.55;7.90;;;;;;;14.09;100.00;63456.06;5027559;28;20250;-80
2023/05/21 02:05:30;;;;;;;9.52;8.07;;;;;;;14.03;100.00;63452.41;5027299;28;20202;-79
2023/05/21 02:08:00;;;;;;;8.93;7.53;;;;;;;14.03;100.00;63442.66;5039178;28;20228;-80
2023/05/21 02:10:29;;;;;;;9.95;7.45;;;;;;;14.04;100.00;63448.31;5039738;28;20254;-81
2023/05/21 02:12:56;;;;;;;7.47;6.53;;;;;;;14.00;100.00;63442.13;5031681;28;20283;-78
2023/05/21 02:15:23;;;;;;;8.38;7.57;;;;;;;13.65;100.00;63410.91;5031671;28;20266;-80
2023/05/21 02:17:51;;;;;;;14.35;8.20;;;;;;;13.59;100.00;63404.69;5030028;28;20210;-80
2023/05/21 02:20:19;;;;;;;12.00;8.63;;;;;;;13.60;100.00;63405.72;5040656;28;20274;-79
2023/05/21 02:22:47;;;;;;;15.27;9.60;;;;;;;13.51;100.00;63391.78;5030952;28;20265;-79
2023/05/21 02:25:18;;;;;;;12.30;9.25;;;;;;;13.48;100.00;63393.25;5031312;28;20206;-80
2023/05/21 02:27:46;;;;;;;14.55;9.77;;;;;;;13.46;100.00;63388.63;5033557;28;20443;-80
2023/05/21 02:30:15;;;;;;;12.50;9.85;;;;;;;13.42;100.00;63385.00;5046437;28;20217;-79
2023/05/21 02:32:43;;;;;;;7.65;6.72;;;;;;;13.36;100.00;63376.22;5031329;28;20215;-80
2023/05/21 02:35:12;;;;;;;6.80;6.13;;;;;;;13.29;100.00;63376.09;5031194;28;20246;-79
2023/05/21 02:37:40;;;;;;;6.97;5.18;;;;;;;13.32;100.00;63371.56;5038625;28;20286;-78
2023/05/21 02:40:09;;;;;;;6.82;5.22;;;;;;;13.27;100.00;63363.81;5048608;28;20546;-80
2023/05/21 02:42:38;;;;;;;5.25;4.75;;;;;;;13.26;100.00;63365.84;5049359;28;20225;-81
2023/05/21 02:45:08;;;;;;;6.03;5.43;;;;;;;13.24;100.00;63368.34;5050466;28;20500;-80
2023/05/21 02:47:37;;;;;;;4.90;4.43;;;;;;;13.20;100.00;63357.06;5047307;28;20222;-79
2023/05/21 02:50:07;;;;;;;7.13;5.65;;;;;;;13.18;100.00;63362.13;5050692;28;20190;-78
2023/05/21 02:52:34;;;;;;;5.40;4.53;;;;;;;13.26;100.00;63368.41;5041255;28;20226;-80
2023/05/21 02:55:01;;;;;;;9.35;4.40;;;;;;;13.32;100.00;63371.56;5035216;28;20240;-81
2023/05/21 02:57:28;;;;;;;5.97;4.80;;;;;;;13.36;100.00;63378.25;5031473;28;20227;-80
2023/05/21 02:59:55;;;;;;;6.05;4.70;;;;;;;13.42;100.00;63390.13;5029166;28;20238;-80
2023/05/21 03:02:24;;;;;;;7.20;4.50;;;;;;;13.43;100.00;63391.16;5045773;28;20222;-79
2023/05/21 03:04:51;;;;;;;7.75;4.90;;;;;;;13.54;100.00;63396.94;5048461;28;20201;-80
2023/05/21 03:07:18;;;;;;;9.13;4.95;;;;;;;13.54;100.00;63397.47;5048737;28;20233;-80
2023/05/21 03:09:46;;;;;;;7.53;4.47;;;;;;;13.57;100.00;63398.00;5039171;28;20266;-79
2023/05/21 03:12:13;;;;;;;7.05;4.85;;;;;;;13.64;100.00;63407.31;5028800;28;20219;-79
2023/05/21 03:14:42;;;;;;;6.75;4.82;;;;;;;13.55;100.00;63397.97;5029739;28;20214;-80
2023/05/21 03:17:12;;;;;;;6.65;4.47;;;;;;;13.76;100.00;63424.88;5030431;28;20223;-80
2023/05/21 03:19:41;;;;;;;5.53;4.75;;;;;;;13.83;100.00;63427.03;5047583;28;20237;-79
2023/05/21 03:22:10;;;;;;;4.85;4.20;;;;;;;13.91;100.00;63438.41;5049589;28;20218;-80
2023/05/21 03:24:38;;;;;;;4.93;4.47;;;;;;;13.90;100.00;63434.81;5050817;28;20236;-80
2023/05/21 03:27:06;;;;;;;12.88;4.35;;;;;;;14.02;100.00;63446.75;5045992;28;20246;-79
2023/05/21 03:29:34;;;;;;;8.85;4.65;;;;;;;14.04;100.00;63446.28;5031888;28;20207;-81
2023/05/21 03:32:02;;;;;;;5.07;4.57;;;;;;;14.07;100.00;63451.41;5029002;28;20214;-79
2023/05/21 03:34:29;;;;;;;7.00;5.57;;;;;;;14.13;100.00;63457.66;5031260;28;20427;-80
2023/05/21 03:36:57;;;;;;;5.63;5.13;;;;;;;14.19;100.00;63463.88;5036736;28;20218;-79
2023/05/21 03:39:24;;;;;;;7.20;4.78;;;;;;;14.26;100.00;63471.69;5038678;28;20234;-79
2023/05/21 03:41:52;;;;;;;7.78;4.00;;;;;;;14.21;99.97;63468.53;5049680;28;20222;-79
2023/05/21 03:44:19;;;;;;;5.60;4.95;;;;;;;14.34;97.82;63482.06;5049348;28;20422;-80
2023/05/21 03:46:46;;;;;;;5.38;4.85;;;;;;;14.33;100.00;63475.88;5043745;28;20214;-79
2023/05/21 03:49:14;;;;;;;4.03;3.75;;;;;;;14.42;100.00;63487.78;5037095;28;20557;-80
2023/05/21 03:51:41;;;;;;;6.40;4.40;;;;;;;14.51;100.00;63494.59;5050676;28;20218;-80
2023/05/21 03:54:09;;;;;;;4.72;4.35;;;;;;;14.53;100.00;63499.22;5050938;28;20514;-81
2023/05/21 03:56:37;;;;;;;6.40;4.25;;;;;;;14.62;99.97;63511.66;5040681;28;20245;-79
2023/05/21 03:59:05;;;;;;;4.65;4.35;;;;;;;14.74;98.75;63521.03;5047949;28;20241;-80
2023/05/21 04:01:33;;;;;;;4.25;3.85;;;;;;;14.70;93.79;63517.38;5047909;28;20446;-80
2023/05/21 04:04:23;;;;;;;11.20;4.13;;;;;;;14.51;92.62;63495.09;5041431;28;20187;-80
2023/05/21 04:06:53;;;;;;;4.82;3.92;;;;;;;14.83;92.51;63528.34;5032774;28;20282;-79
2023/05/21 04:09:21;;;;;;;7.72;4.78;;;;;;;14.80;92.62;63527.25;5043125;28;20208;-80
2023/05/21 04:11:49;;;;;;;6.85;5.10;;;;;;;14.87;92.69;63537.09;5048670;28;20225;-79
2023/05/21 04:14:17;;;;;;;4.40;4.07;;;;;;;14.97;91.37;63542.88;5048597;28;20198;-80
2023/05/21 04:16:44;;;;;;;10.63;5.28;;;;;;;14.87;92.77;63539.66;5038811;28;20229;-78
2023/05/21 04:19:11;;;;;;;7.97;4.90;;;;;;;14.88;91.69;63533.53;5046592;28;20230;-79
2023/05/21 04:21:43;;;;;;;5.70;4.13;;;;;;;14.85;92.09;63535.56;5035067;28;20226;-79
2023/05/21 04:24:10;;;;;;;5.35;4.15;;;;;;;15.09;90.72;63557.41;5040360;28;20194;-80
2023/05/21 04:26:41;;;;;;;5.43;4.32;;;;;;;15.19;88.04;63564.69;5036505;28;20235;-80
2023/05/21 04:29:08;;;;;;;5.85;4.18;;;;;;;15.21;87.13;63569.34;5048610;28;20189;-80
2023/05/21 04:31:35;;;;;;;4.72;4.30;;;;;;;15.11;90.80;63561.50;5038523;28;20308;-80
2023/05/21 04:34:02;;;;;;;4.53;4.13;;;;;;;15.35;91.00;63581.31;5047266;28;20197;-80
2023/05/21 04:36:30;;;;;;;5.50;4.60;;;;;;;15.39;88.81;63588.59;5042253;28;20217;-82
2023/05/21 04:38:57;;;;;;;6.70;4.88;;;;;;;15.47;87.80;63593.81;5029991;28;20306;-80
2023/05/21 04:41:24;;;;;;;6.35;4.70;;;;;;;15.58;86.02;63607.81;5033604;28;20577;-80
2023/05/21 04:43:53;;;;;;;6.00;4.72;;;;;;;15.62;84.84;63609.94;5035712;28;20198;-79
2023/05/21 04:46:24;;;;;;;4.43;4.03;;;;;;;15.58;82.99;63612.97;5040389;28;20202;-79
2023/05/21 04:48:53;;;;;;;5.25;4.07;;;;;;;15.65;82.07;63615.59;5032077;28;20422;-81
2023/05/21 04:51:23;;;;;;;5.65;3.97;;;;;;;15.77;82.87;63625.00;5046101;28;20208;-81
2023/05/21 04:53:50;;;;;;;5.70;4.35;;;;;;;15.84;82.27;63632.28;5031840;28;20233;-79
2023/05/21 04:56:18;;;;;;;4.78;4.38;;;;;;;16.05;81.73;63657.22;5028528;28;20218;-81
2023/05/21 04:58:46;;;;;;;4.43;3.45;;;;;;;16.20;79.55;63672.31;5030479;28;20300;-80
2023/05/21 05:01:15;;;;;;;5.22;3.88;;;;;;;16.13;79.42;63665.00;5027808;28;20194;-79
2023/05/21 05:03:42;;;;;;;5.18;4.70;;;;;;;16.32;79.99;63681.69;5029240;28;20205;-78
2023/05/21 05:06:10;;;;;;;4.13;3.83;;;;;;;16.48;80.87;63700.94;5035683;28;20226;-80
2023/05/21 05:08:38;;;;;;;4.45;4.05;;;;;;;16.76;80.73;63727.47;5029342;28;20205;-81
2023/05/21 05:11:05;;;;;;;5.70;3.83;;;;;;;16.81;77.01;63735.78;5029532;28;20628;-80
2023/05/21 05:13:32;;;;;;;5.53;4.40;;;;;;;16.63;76.27;63717.06;5041430;28;20201;-79
2023/05/21 05:15:59;;;;;;;4.53;4.07;;;;;;;16.72;73.91;63726.41;5047825;28;20261;-80
2023/05/21 05:18:27;;;;;;;5.50;3.80;;;;;;;16.97;70.53;63752.44;5037512;28;20281;-79
2023/05/21 05:20:55;;;;;;;4.40;4.10;;;;;;;17.06;70.51;63758.69;5048614;28;20256;-81
2023/05/21 05:23:22;;;;;;;5.43;4.65;;;;;;;16.84;70.30;63736.31;5048202;28;20217;-80
2023/05/21 05:25:49;;;;;;;4.57;4.18;;;;;;;17.07;68.58;63759.72;5032977;28;20229;-82
2023/05/21 05:28:16;;;;;;;5.85;3.72;;;;;;;17.30;66.81;63786.78;5044153;28;20225;-80
2023/05/21 05:30:43;;;;;;;6.18;4.65;;;;;;;17.55;70.65;63814.38;5030171;28;20210;-80
2023/05/21 05:33:10;;;;;;;9.15;4.57;;;;;;;17.75;65.67;63830.03;5027150;28;20221;-80
2023/05/21 05:35:39;;;;;;;8.70;3.67;;;;;;;17.86;65.13;63844.06;5027064;28;20229;-81
2023/05/21 05:38:07;;;;;;;3.90;3.42;;;;;;;17.71;67.11;63828.97;5028858;28;20222;-80
2023/05/21 05:40:36;;;;;;;3.65;3.35;;;;;;;17.68;67.82;63825.31;5034679;28;20244;-80
2023/05/21 05:43:03;;;;;;;7.63;4.00;;;;;;;17.99;66.91;63860.72;5037790;28;20427;-80
2023/05/21 05:45:31;;;;;;;5.25;4.43;;;;;;;18.36;65.36;63891.00;5052000;28;20193;-80
2023/05/21 05:47:58;;;;;;;6.40;4.07;;;;;;;18.58;66.09;63923.72;5047479;28;20223;-81
2023/05/21 05:50:25;;;;;;;5.90;4.15;;;;;;;18.71;66.11;63932.13;5052883;28;20496;-78
2023/05/21 05:52:54;;;;;;;7.15;3.90;;;;;;;18.71;62.21;63929.53;5052563;28;20225;-80
2023/05/21 05:55:23;;;;;;;4.88;3.55;;;;;;;18.38;60.61;63903.38;5051486;28;20252;-78
2023/05/21 05:57:51;;;;;;;5.05;4.55;;;;;;;18.45;63.65;63908.13;5053381;28;20217;-79
2023/05/21 06:00:18;;;;;;;4.97;4.50;;;;;;;18.65;64.46;63926.41;5060650;28;20225;-81
2023/05/21 06:02:46;;;;;;;5.88;3.80;;;;;;;18.68;64.30;63934.69;5035669;28;20549;-79
2023/05/21 06:05:13;;;;;;;5.07;4.03;;;;;;;18.60;63.65;63918.59;5038909;28;20198;-79
2023/05/21 06:07:41;;;;;;;4.82;3.35;;;;;;;18.99;62.31;63950.97;5050918;28;20228;-82
2023/05/21 06:10:11;;;;;;;4.07;3.78;;;;;;;19.15;62.18;63981.09;5054137;28;20256;-80
2023/05/21 06:12:38;;;;;;;6.40;4.35;;;;;;;19.48;61.46;64015.00;5054216;28;20234;-80
2023/05/21 06:15:07;;;;;;;4.63;3.67;;;;;;;19.48;59.57;64012.94;5069580;28;20196;-81
2023/05/21 06:17:35;;;;;;;7.57;3.80;;;;;;;19.15;58.41;63975.41;5065757;28;20221;-81
2023/05/21 06:20:03;;;;;;;4.78;4.25;;;;;;;19.04;59.03;63971.69;5072382;28;20255;-79
2023/05/21 06:22:30;;;;;;;6.70;3.78;;;;;;;19.00;59.05;63960.28;5044593;28;20225;-80
2023/05/21 06:24:58;;;;;;;4.60;3.78;;;;;;;19.03;59.94;63971.16;5035449;28;20190;-81
2023/05/21 06:27:29;;;;;;;5.93;4.10;;;;;;;18.95;59.43;63957.13;5038817;28;20273;-81
2023/05/21 06:29:57;;;;;;;8.13;3.55;;;;;;;18.68;59.71;63934.16;5049640;28;20190;-80
2023/05/21 06:32:25;;;;;;;7.13;4.30;;;;;;;18.75;59.94;63938.88;5042518;28;20217;-82
2023/05/21 06:34:52;;;;;;;4.57;4.03;;;;;;;18.77;62.81;63943.53;5051823;28;20273;-80
2023/05/21 06:37:20;;;;;;;6.50;4.88;;;;;;;18.64;62.48;63924.84;5048116;28;20219;-80
2023/05/21 06:39:48;;;;;;;12.32;4.55;;;;;;;18.59;63.86;63917.56;5048079;28;20292;-79
2023/05/21 06:42:14;;;;;;;4.53;4.10;;;;;;;18.72;64.13;63930.59;5041709;28;20206;-78
2023/05/21 06:44:43;;;;;;;4.50;4.18;;;;;;;18.64;64.35;63930.50;5044103;28;20275;-79
2023/05/21 06:47:12;;;;;;;7.35;3.95;;;;;;;18.68;65.85;63929.00;5048412;28;20217;-79
2023/05/21 06:49:39;;;;;;;4.43;3.63;;;;;;;18.88;65.25;63952.44;5046060;28;20194;-80
2023/05/21 06:52:07;;;;;;;6.43;4.07;;;;;;;19.09;62.78;63974.84;5052157;28;20240;-78
2023/05/21 06:54:35;;;;;;;4.43;4.05;;;;;;;19.30;61.84;63991.06;5045989;28;20220;-79
2023/05/21 06:57:02;;;;;;;5.38;3.83;;;;;;;19.38;61.01;64001.97;5036745;28;20456;-80
2023/05/21 06:59:30;;;;;;;5.13;4.43;;;;;;;19.43;61.13;64012.88;5032827;28;20710;-80
2023/05/21 07:01:59;;;;;;;9.80;4.28;;;;;;;19.78;59.70;64041.13;5033031;28;20233;-79
2023/05/21 07:04:26;;;;;;;6.05;4.80;;;;;;;19.64;59.36;64034.28;5036914;28;20201;-78
2023/05/21 07:06:53;;;;;;;4.40;4.00;;;;;;;19.58;58.72;64024.91;5026778;28;20272;-78
2023/05/21 07:09:21;;;;;;;4.10;3.78;;;;;;;19.59;58.11;64023.38;5030155;28;20228;-79
2023/05/21 07:11:48;;;;;;;10.45;4.72;;;;;;;19.72;57.52;64034.88;5040232;28;20240;-79
2023/05/21 07:14:15;;;;;;;8.00;4.18;;;;;;;19.58;56.63;64025.44;5027010;28;20243;-80
2023/05/21 07:16:43;;;;;;;5.97;4.72;;;;;;;19.76;58.48;64041.63;5030651;28;20272;-79
2023/05/21 07:19:12;;;;;;;4.32;3.92;;;;;;;19.85;56.41;64047.91;5035428;28;20230;-78
2023/05/21 07:21:38;;;;;;;4.47;4.07;;;;;;;20.19;57.56;64086.50;5030570;28;20292;-79
2023/05/21 07:24:06;;;;;;;4.35;3.92;;;;;;;20.38;57.22;64106.34;5033327;28;20208;-78
2023/05/21 07:26:33;;;;;;;4.85;3.67;;;;;;;20.34;54.72;64099.06;5045706;28;20235;-80
2023/05/21 07:29:01;;;;;;;5.53;4.00;;;;;;;20.44;54.22;64114.66;5051243;28;20249;-80
2023/05/21 07:31:28;;;;;;;4.13;3.63;;;;;;;20.29;56.07;64102.13;5046134;28;20225;-79
2023/05/21 07:33:58;;;;;;;4.32;3.92;;;;;;;20.26;54.91;64096.41;5027979;28;20218;-80
2023/05/21 07:36:28;;;;;;;4.57;4.15;;;;;;;20.40;55.29;64107.91;5029927;28;20218;-78
2023/05/21 07:38:55;;;;;;;4.38;3.97;;;;;;;20.43;54.72;64111.53;5028940;28;20217;-79
2023/05/21 07:41:22;;;;;;;4.40;4.10;;;;;;;20.43;53.78;64111.53;5049850;28;20481;-79
2023/05/21 07:43:50;;;;;;;5.18;4.00;;;;;;;20.58;53.95;64126.69;5036945;28;20209;-80
2023/05/21 07:46:17;;;;;;;4.15;3.75;;;;;;;20.40;52.59;64105.84;5028967;28;20190;-78
2023/05/21 07:48:45;;;;;;;5.18;4.75;;;;;;;20.54;55.01;64125.09;5036539;28;20204;-80
2023/05/21 07:51:12;;;;;;;4.90;4.07;;;;;;;20.36;54.90;64104.25;5047062;28;20193;-80
2023/05/21 07:53:41;;;;;;;7.95;4.93;;;;;;;20.25;55.82;64090.19;5032303;28;20233;-79
2023/05/21 07:56:09;;;;;;;4.43;3.17;;;;;;;20.29;54.71;64094.38;5030646;28;20544;-80
2023/05/21 07:58:37;;;;;;;8.32;4.70;;;;;;;20.36;55.88;64108.91;5040312;28;20201;-79
2023/05/21 08:01:05;;;;;;;6.22;4.13;;;;;;;20.34;55.88;64099.59;5027835;28;20234;-77
2023/05/21 08:03:32;;;;;;;5.47;4.93;;;;;;;20.38;55.66;64111.50;5025480;28;20265;-78
2023/05/21 08:06:00;;;;;;;4.38;3.97;;;;;;;20.64;55.73;64135.53;5027355;28;20205;-79
2023/05/21 08:08:27;;;;;;;4.63;4.15;;;;;;;20.89;55.09;64161.13;5032512;28;20549;-79
2023/05/21 08:10:56;;;;;;;3.83;3.53;;;;;;;21.20;52.54;64199.22;5039523;28;20218;-79
2023/05/21 08:13:23;;;;;;;4.53;3.88;;;;;;;21.39;51.65;64208.16;5031455;28;20225;-79
2023/05/21 08:15:53;;;;;;;4.80;3.97;;;;;;;21.48;52.01;64220.16;5032181;28;20198;-79
2023/05/21 08:18:22;;;;;;;9.48;3.97;;;;;;;21.85;50.00;64260.91;5033925;28;20214;-81
2023/05/21 08:20:50;;;;;;;5.40;4.00;;;;;;;21.71;47.72;64247.31;5037637;28;20417;-79
2023/05/21 08:23:17;;;;;;;7.43;3.60;;;;;;;22.07;47.77;64287.00;5030446;28;20249;-79
2023/05/21 08:25:44;;;;;;;4.28;3.50;;;;;;;22.05;46.54;64282.34;5042015;28;20516;-79
2023/05/21 08:28:13;;;;;;;3.90;3.60;;;;;;;22.08;46.06;64285.47;5033434;28;20273;-79
2023/05/21 08:30:40;;;;;;;10.15;3.92;;;;;;;22.00;45.22;64271.41;5027998;28;20281;-79
2023/05/21 08:33:08;;;;;;;5.25;3.92;;;;;;;22.04;46.46;64273.50;5036802;28;20236;-79
2023/05/21 08:35:35;;;;;;;5.90;3.67;;;;;;;21.91;44.59;64265.09;5047953;28;20216;-79
2023/05/21 08:38:02;;;;;;;4.68;3.42;;;;;;;21.63;44.91;64241.00;5038170;28;20436;-79
2023/05/21 08:40:29;;;;;;;8.60;4.35;;;;;;;21.46;45.92;64221.19;5030824;28;20300;-78
2023/05/21 08:42:57;;;;;;;6.07;3.72;;;;;;;21.74;46.23;64244.75;5048676;28;20227;-80
2023/05/21 08:45:26;;;;;;;6.18;3.70;;;;;;;22.09;46.67;64283.91;5040048;28;20221;-79
2023/05/21 08:47:56;;;;;;;3.63;3.03;;;;;;;22.42;46.70;64320.47;5041405;28;20221;-79
2023/05/21 08:50:27;;;;;;;6.85;4.10;;;;;;;22.51;47.49;64327.28;5046836;28;20196;-81
2023/05/21 08:52:57;;;;;;;3.90;3.50;;;;;;;22.28;46.73;64303.25;5047482;28;20213;-81
2023/05/21 08:55:27;;;;;;;5.53;3.90;;;;;;;22.48;48.08;64327.28;5035725;28;20202;-81
2023/05/21 08:57:54;;;;;;;3.75;3.42;;;;;;;22.09;49.01;64283.41;5040369;28;20284;-79
2023/05/21 09:00:22;;;;;;;6.15;3.70;;;;;;;22.31;48.24;64311.59;5036507;28;20492;-78
2023/05/21 09:02:53;;;;;;;5.10;3.78;;;;;;;22.11;48.47;64288.06;5033743;28;20263;-79
2023/05/21 09:05:21;;;;;;;6.55;4.13;;;;;;;22.41;48.86;64319.97;5037531;28;20231;-79
2023/05/21 09:07:55;;;;;;;3.95;3.58;;;;;;;22.51;47.30;64327.28;5029244;28;20667;-79
2023/05/21 09:10:27;;;;;;;5.15;3.83;;;;;;;22.41;47.15;64319.97;5040081;28;20197;-80
2023/05/21 09:12:54;;;;;;;3.75;3.40;;;;;;;22.57;46.56;64336.69;5041257;28;20289;-80
2023/05/21 09:15:22;;;;;;;8.02;3.80;;;;;;;22.61;46.35;64343.47;5033940;28;20199;-80
2023/05/21 09:17:49;;;;;;;7.38;4.10;;;;;;;22.24;44.70;64299.06;5029786;28;20266;-80
2023/05/21 09:20:18;;;;;;;7.63;3.55;;;;;;;22.09;45.62;64286.50;5027192;28;20234;-79
2023/05/21 09:22:46;;;;;;;4.97;3.17;;;;;;;22.01;44.95;64275.03;5033929;28;20246;-79
2023/05/21 09:25:15;;;;;;;3.67;3.28;;;;;;;21.70;44.28;64248.84;5034544;28;20217;-79
2023/05/21 09:27:43;;;;;;;3.60;2.90;;;;;;;21.53;43.66;64223.31;5040579;28;20239;-80
2023/05/21 09:30:11;;;;;;;7.03;3.08;;;;;;;21.51;44.33;64220.69;5045597;28;20533;-81
2023/05/21 09:32:38;;;;;;;6.88;2.88;;;;;;;21.61;43.11;64239.44;5040663;28;20510;-79
2023/05/21 09:35:15;;;;;;;6.65;3.15;;;;;;;21.18;42.06;64189.34;5045591;28;20305;-80
2023/05/21 09:37:47;;;;;;;3.53;2.83;;;;;;;21.16;42.67;64189.31;5038059;28;20268;-80
2023/05/21 09:40:15;;;;;;;3.47;2.70;;;;;;;21.13;42.14;64186.72;5047122;28;20206;-81
2023/05/21 09:42:44;;;;;;;4.75;3.50;;;;;;;21.20;43.71;64193.50;5041156;28;20554;-79
2023/05/21 09:45:11;;;;;;;3.20;3.00;;;;;;;20.92;44.09;64161.66;5049132;28;20197;-79
2023/05/21 09:47:43;;;;;;;8.35;3.17;;;;;;;21.05;42.74;64177.84;5035947;28;20218;-80
2023/05/21 09:50:11;;;;;;;4.57;3.10;;;;;;;20.92;43.24;64159.59;5038507;28;20209;-78
2023/05/21 09:52:38;;;;;;;5.35;3.00;;;;;;;21.21;42.72;64191.97;5045209;28;20437;-79
2023/05/21 09:55:11;;;;;;;5.72;3.20;;;;;;;21.44;43.74;64216.50;5032510;28;20194;-80
2023/05/21 09:57:42;;;;;;;6.38;3.20;;;;;;;21.20;43.50;64190.91;5037652;28;20281;-79
2023/05/21 10:00:17;;;;;;;4.25;2.80;;;;;;;21.23;42.95;64194.56;5047426;28;20221;-79
2023/05/21 10:02:49;;;;;;;5.40;3.20;;;;;;;21.28;42.69;64204.97;5036024;28;20232;-80
2023/05/21 10:05:16;;;;;;;5.45;2.80;;;;;;;21.29;41.44;64206.03;5037575;28;20205;-79
2023/05/21 10:07:48;;;;;;;3.75;3.40;;;;;;;21.52;45.01;64224.34;5038876;28;20217;-78
2023/05/21 10:10:20;;;;;;;4.15;3.00;;;;;;;21.60;44.66;64233.22;5041489;28;20217;-79
2023/05/21 10:12:51;;;;;;;2.85;2.65;;;;;;;22.03;43.95;64274.53;5033603;28;20463;-79
2023/05/21 10:15:24;;;;;;;3.55;2.70;;;;;;;22.30;41.49;64305.34;5043824;28;20205;-79
2023/05/21 10:17:52;;;;;;;3.85;3.42;;;;;;;22.47;39.00;64323.09;5034641;28;20390;-78
2023/05/21 10:20:20;;;;;;;4.82;3.20;;;;;;;22.49;38.14;64325.72;5030259;28;20238;-79
2023/05/21 10:22:48;;;;;;;3.50;2.80;;;;;;;22.39;38.96;64315.28;5033916;28;20232;-80
2023/05/21 10:25:17;;;;;;;3.63;3.33;;;;;;;22.51;38.65;64327.28;5048071;28;20213;-79
2023/05/21 10:27:45;;;;;;;4.47;3.63;;;;;;;22.63;39.02;64337.25;5039654;28;20518;-79
2023/05/21 10:30:13;;;;;;;4.10;3.25;;;;;;;22.68;38.42;64343.00;5034461;28;20213;-80
2023/05/21 10:32:40;;;;;;;3.83;3.00;;;;;;;22.99;38.91;64377.00;5028834;28;20229;-78
2023/05/21 10:35:10;;;;;;;3.65;3.35;;;;;;;22.95;38.74;64375.91;5032136;28;20202;-80
2023/05/21 10:37:37;;;;;;;3.45;3.22;;;;;;;22.95;37.63;64375.41;5032035;28;20230;-81
2023/05/21 10:40:06;;;;;;;2.97;2.78;;;;;;;22.91;38.88;64371.72;5042403;28;20225;-80
2023/05/21 10:43:13;;;;;;;6.03;3.20;;;;;;;22.96;37.65;64371.25;5054172;28;20243;-80
2023/05/21 10:46:06;;;;;;;9.13;3.63;;;;;;;22.76;39.03;64348.78;5027761;28;20201;-81
2023/05/21 10:48:58;;;;;;;6.40;3.63;;;;;;;22.79;37.79;64356.59;5042899;28;20202;-79
2023/05/21 10:51:29;;;;;;;4.03;3.17;;;;;;;22.67;38.39;64344.56;5032431;28;20282;-80
2023/05/21 10:54:36;;;;;;;7.40;3.67;;;;;;;22.78;39.18;64358.66;5037007;28;20216;-79
2023/05/21 10:57:16;;;;;;;4.22;3.65;;;;;;;22.92;40.07;64370.69;5019244;28;20226;-79
2023/05/21 10:59:46;;;;;;;4.22;2.83;;;;;;;22.87;40.76;64365.47;5040805;28;20200;-80
2023/05/21 11:02:17;;;;;;;6.65;3.65;;;;;;;22.58;39.54;64335.16;5052037;28;20233;-80
2023/05/21 11:04:47;;;;;;;5.28;4.63;;;;;;;22.37;41.27;64312.66;5050196;28;20189;-78
2023/05/21 11:07:15;;;;;;;7.05;4.70;;;;;;;22.07;41.18;64281.81;5044528;28;20249;-82
2023/05/21 11:09:43;;;;;;;4.13;3.80;;;;;;;22.18;41.69;64292.78;5050347;28;20202;-82
2023/05/21 11:12:11;;;;;;;4.88;3.65;;;;;;;22.19;41.26;64299.03;5058845;28;20249;-80
2023/05/21 11:14:41;;;;;;;3.97;3.60;;;;;;;22.12;42.22;64284.47;5031877;28;20229;-80
2023/05/21 11:17:13;;;;;;;7.40;4.05;;;;;;;22.30;42.27;64308.44;5047095;28;20221;-79
2023/05/21 11:19:45;;;;;;;3.97;3.08;;;;;;;22.84;42.17;64364.94;5032603;28;20202;-79
2023/05/21 11:22:23;;;;;;;7.10;5.32;;;;;;;23.04;39.22;64385.31;5033722;28;20233;-78
2023/05/21 11:24:51;;;;;;;11.02;3.88;;;;;;;23.09;40.24;64387.94;5051459;28;20199;-78
2023/05/21 11:27:34;;;;;;;4.40;3.47;;;;;;;23.47;38.71;64429.81;5048061;28;20259;-79
2023/05/21 11:30:04;;;;;;;3.80;3.50;;;;;;;23.51;38.92;64431.91;5041764;28;20232;-79
2023/05/21 11:32:36;;;;;;;4.10;3.70;;;;;;;22.79;37.89;64357.13;5052042;28;20229;-80
2023/05/21 11:35:08;;;;;;;7.10;3.67;;;;;;;22.36;39.97;64317.34;5043219;28;20197;-78
2023/05/21 11:37:39;;;;;;;4.00;3.60;;;;;;;21.97;40.27;64271.38;5037248;28;20289;-80